createdAt,value
2023-09-03T00:00:39.393Z,102660.75
2023-09-03T00:03:07.068Z,102661.81
2023-09-03T00:05:34.422Z,102658.50
2023-09-03T00:08:01.647Z,102659.63
2023-09-03T00:10:29.092Z,102670.28
2023-09-03T00:12:55.791Z,102666.03
2023-09-03T00:15:26.700Z,102655.78
2023-09-03T00:17:53.471Z,102649.94
2023-09-03T00:20:20.407Z,102644.38
2023-09-03T00:22:47.298Z,102617.38
2023-09-03T00:25:14.099Z,102629.75
2023-09-03T00:27:40.805Z,102636.53
2023-09-03T00:30:08.280Z,102574.53
2023-09-03T00:32:34.964Z,102626.94
2023-09-03T00:35:01.688Z,102615.66
2023-09-03T00:37:28.350Z,102603.13
2023-09-03T00:39:55.125Z,102608.06
2023-09-03T00:42:21.696Z,102630.88
2023-09-03T00:44:48.908Z,102650.44
2023-09-03T00:47:18.484Z,102625.25
2023-09-03T00:49:45.416Z,102623.22
2023-09-03T00:52:12.669Z,102608.03
2023-09-03T00:54:39.854Z,102660.72
2023-09-03T00:57:06.564Z,102659.47
2023-09-03T00:59:34.647Z,102649.47
2023-09-03T01:02:01.421Z,102657.25
2023-09-03T01:04:28.212Z,102663.72
2023-09-03T01:06:55.387Z,102671.84
2023-09-03T01:09:22.143Z,102666.25
2023-09-03T01:11:59.048Z,102663.94
2023-09-03T01:14:33.297Z,102609.59
2023-09-03T01:17:33.014Z,102669.06
2023-09-03T01:20:13.316Z,102657.88
2023-09-03T01:23:21.093Z,102662.13
2023-09-03T01:26:13.087Z,102651.69
2023-09-03T01:28:42.070Z,102650.97
2023-09-03T01:31:17.955Z,102633.72
2023-09-03T01:33:46.974Z,102633.72
2023-09-03T01:36:15.038Z,102642.22
2023-09-03T01:38:42.098Z,102635.38
2023-09-03T01:41:09.347Z,102608.19
2023-09-03T01:43:36.106Z,102611.09
2023-09-03T01:46:08.899Z,102615.78
2023-09-03T01:49:13.348Z,102621.63
2023-09-03T01:51:57.189Z,102616.31
2023-09-03T01:54:30.002Z,102615.44
2023-09-03T01:57:05.743Z,102594.16
2023-09-03T01:59:42.348Z,102610.22
2023-09-03T02:02:10.790Z,102598.06
2023-09-03T02:04:37.516Z,102588.16
2023-09-03T02:07:04.359Z,102589.13
2023-09-03T02:09:31.275Z,102556.56
2023-09-03T02:11:58.660Z,102543.19
2023-09-03T02:14:25.428Z,102575.50
2023-09-03T02:16:52.418Z,102581.06
2023-09-03T02:19:19.066Z,102596.81
2023-09-03T02:21:46.302Z,102594.28
2023-09-03T02:24:13.181Z,102594.72
2023-09-03T02:26:44.957Z,102608.34
2023-09-03T02:29:12.496Z,102598.97
2023-09-03T02:31:39.525Z,102600.69
2023-09-03T02:34:07.394Z,102609.63
2023-09-03T02:36:35.503Z,102611.06
2023-09-03T02:39:04.224Z,102599.78
2023-09-03T02:41:31.173Z,102629.91
2023-09-03T02:44:02.465Z,102630.38
2023-09-03T02:46:29.485Z,102623.16
2023-09-03T02:48:56.171Z,102630.28
2023-09-03T02:51:22.830Z,102635.31
2023-09-03T02:53:52.436Z,102656.09
2023-09-03T02:56:19.320Z,102656.19
2023-09-03T02:58:48.091Z,102657.03
2023-09-03T03:01:16.386Z,102654.47
2023-09-03T03:03:43.040Z,102649.34
2023-09-03T03:06:10.409Z,102629.56
2023-09-03T03:08:37.274Z,102628.91
2023-09-03T03:11:12.164Z,102632.09
2023-09-03T03:13:40.913Z,102630.63
2023-09-03T03:16:13.005Z,102630.63
2023-09-03T03:18:41.480Z,102628.91
2023-09-03T03:21:11.937Z,102631.78
2023-09-03T03:23:39.543Z,102636.41
2023-09-03T03:26:06.401Z,102582.19
2023-09-03T03:28:34.742Z,102634.34
2023-09-03T03:31:12.234Z,102590.25
2023-09-03T03:33:40.524Z,102628.69
2023-09-03T03:36:08.306Z,102621.25
2023-09-03T03:38:35.406Z,102618.91
2023-09-03T03:41:10.267Z,102632.13
2023-09-03T03:43:44.979Z,102634.22
2023-09-03T03:46:15.250Z,102629.88
2023-09-03T03:48:42.732Z,102646.38
2023-09-03T03:51:09.734Z,102634.44
2023-09-03T03:53:36.972Z,102618.47
2023-09-03T03:56:06.052Z,102627.00
2023-09-03T03:58:37.814Z,102597.28
2023-09-03T04:01:18.541Z,102624.44
2023-09-03T04:03:47.054Z,102646.06
2023-09-03T04:06:14.251Z,102651.38
2023-09-03T04:08:41.510Z,102641.25
2023-09-03T04:11:10.051Z,102667.25
2023-09-03T04:13:38.015Z,102667.34
2023-09-03T04:16:09.104Z,102680.84
2023-09-03T04:18:35.911Z,102678.94
2023-09-03T04:21:02.614Z,102678.94
2023-09-03T04:23:29.787Z,102650.94
2023-09-03T04:25:58.446Z,102690.66
2023-09-03T04:28:25.839Z,102695.78
2023-09-03T04:31:05.662Z,102691.50
2023-09-03T04:33:32.492Z,102688.31
2023-09-03T04:36:00.990Z,102685.31
2023-09-03T04:38:28.607Z,102697.91
2023-09-03T04:40:56.488Z,102707.69
2023-09-03T04:43:24.360Z,102671.91
2023-09-03T04:45:53.024Z,102698.34
2023-09-03T04:48:21.720Z,102711.75
2023-09-03T04:50:49.110Z,102717.06
2023-09-03T04:53:15.908Z,102722.56
2023-09-03T04:55:43.101Z,102725.78
2023-09-03T04:58:10.092Z,102719.91
2023-09-03T05:00:37.565Z,102721.72
2023-09-03T05:03:06.290Z,102710.88
2023-09-03T05:05:40.966Z,102741.56
2023-09-03T05:08:09.660Z,102731.75
2023-09-03T05:10:36.909Z,102704.69
2023-09-03T05:13:08.272Z,102722.28
2023-09-03T05:15:35.479Z,102741.34
2023-09-03T05:18:02.833Z,102755.00
2023-09-03T05:20:30.074Z,102753.06
2023-09-03T05:22:56.788Z,102741.78
2023-09-03T05:25:23.556Z,102768.78
2023-09-03T05:27:50.232Z,102769.31
2023-09-03T05:30:16.991Z,102748.88
2023-09-03T05:32:43.850Z,102747.91
2023-09-03T05:35:11.200Z,102762.75
2023-09-03T05:37:37.910Z,102749.31
2023-09-03T05:40:05.999Z,102747.84
2023-09-03T05:42:33.168Z,102748.03
2023-09-03T05:45:00.365Z,102780.84
2023-09-03T05:47:27.395Z,102772.06
2023-09-03T05:49:56.149Z,102760.03
2023-09-03T05:52:22.795Z,102757.22
2023-09-03T05:54:49.579Z,102753.25
2023-09-03T05:57:16.298Z,102733.06
2023-09-03T05:59:43.008Z,102765.53
2023-09-03T06:02:09.679Z,102757.59
2023-09-03T06:04:37.154Z,102745.72
2023-09-03T06:07:05.558Z,102764.97
2023-09-03T06:09:32.377Z,102754.44
2023-09-03T06:11:59.192Z,102784.50
2023-09-03T06:14:25.840Z,102753.44
2023-09-03T06:16:53.078Z,102763.19
2023-09-03T06:19:20.366Z,102780.31
2023-09-03T06:21:46.964Z,102780.28
2023-09-03T06:24:13.662Z,102773.34
2023-09-03T06:26:40.407Z,102777.72
2023-09-03T06:29:07.110Z,102783.44
2023-09-03T06:31:33.885Z,102789.00
2023-09-03T06:34:00.671Z,102758.59
2023-09-03T06:36:27.371Z,102783.38
2023-09-03T06:38:53.993Z,102780.06
2023-09-03T06:41:20.716Z,102773.84
2023-09-03T06:43:47.649Z,102797.00
2023-09-03T06:46:14.494Z,102778.88
2023-09-03T06:48:41.268Z,102791.19
2023-09-03T06:51:08.114Z,102799.00
2023-09-03T06:53:34.801Z,102771.81
2023-09-03T06:56:01.609Z,102793.47
2023-09-03T06:58:28.415Z,102782.84
2023-09-03T07:00:56.609Z,102802.06
2023-09-03T07:03:23.696Z,102805.00
2023-09-03T07:05:50.484Z,102799.22
2023-09-03T07:08:17.343Z,102804.91
2023-09-03T07:10:44.451Z,102803.16
2023-09-03T07:13:12.167Z,102802.91
2023-09-03T07:15:38.951Z,102799.00
2023-09-03T07:18:06.077Z,102806.91
2023-09-03T07:20:32.902Z,102808.59
2023-09-03T07:22:59.578Z,102786.41
2023-09-03T07:25:26.526Z,102808.78
2023-09-03T07:27:53.306Z,102800.34
2023-09-03T07:30:20.034Z,102811.75
2023-09-03T07:32:46.801Z,102799.91
2023-09-03T07:35:14.082Z,102803.00
2023-09-03T07:37:40.783Z,102777.28
2023-09-03T07:40:09.554Z,102765.34
2023-09-03T07:42:36.376Z,102829.06
2023-09-03T07:45:03.626Z,102825.41
2023-09-03T07:47:30.299Z,102796.78
2023-09-03T07:49:57.132Z,102822.13
2023-09-03T07:52:23.837Z,102825.25
2023-09-03T07:54:50.665Z,102827.41
2023-09-03T07:57:17.871Z,102819.28
2023-09-03T07:59:44.581Z,102835.78
2023-09-03T08:02:11.490Z,102828.25
2023-09-03T08:04:38.260Z,102821.75
2023-09-03T08:07:05.104Z,102842.31
2023-09-03T08:09:32.276Z,102840.88
2023-09-03T08:11:58.945Z,102847.84
2023-09-03T08:14:25.803Z,102835.22
2023-09-03T08:16:52.641Z,102839.00
2023-09-03T08:19:19.387Z,102846.22
2023-09-03T08:21:46.448Z,102841.13
2023-09-03T08:24:13.291Z,102838.13
2023-09-03T08:26:40.167Z,102843.94
2023-09-03T08:29:07.080Z,102847.97
2023-09-03T08:31:34.263Z,102832.72
2023-09-03T08:34:01.036Z,102838.50
2023-09-03T08:36:27.649Z,102846.16
2023-09-03T08:38:54.712Z,102832.50
2023-09-03T08:41:23.933Z,102856.97
2023-09-03T08:43:58.747Z,102843.63
2023-09-03T08:46:30.004Z,102861.41
2023-09-03T08:48:57.580Z,102858.66
2023-09-03T08:51:25.099Z,102853.66
2023-09-03T08:53:55.084Z,102851.09
2023-09-03T08:56:21.760Z,102831.44
2023-09-03T08:58:48.478Z,102803.28
2023-09-03T09:01:17.519Z,102844.22
2023-09-03T09:03:45.881Z,102773.19
2023-09-03T09:06:13.680Z,102863.06
2023-09-03T09:08:42.020Z,102871.94
2023-09-03T09:11:15.086Z,102852.38
2023-09-03T09:13:48.573Z,102852.34
2023-09-03T09:16:15.357Z,102855.22
2023-09-03T09:18:42.336Z,102811.72
2023-09-03T09:21:09.340Z,102887.94
2023-09-03T09:23:36.220Z,102887.59
2023-09-03T09:26:15.781Z,102887.28
2023-09-03T09:28:58.370Z,102892.69
2023-09-03T09:31:32.626Z,102903.81
2023-09-03T09:34:01.396Z,102869.94
2023-09-03T09:36:28.542Z,102890.19
2023-09-03T09:39:06.477Z,102887.47
2023-09-03T09:41:38.616Z,102897.97
2023-09-03T09:44:10.969Z,102890.66
2023-09-03T09:46:37.810Z,102902.31
2023-09-03T09:49:04.570Z,102855.19
2023-09-03T09:51:32.432Z,102916.19
2023-09-03T09:54:04.265Z,102909.41
2023-09-03T09:56:32.476Z,102910.25
2023-09-03T09:58:59.714Z,102903.94
2023-09-03T10:01:28.578Z,102912.41
2023-09-03T10:03:56.104Z,102909.41
2023-09-03T10:06:24.419Z,102899.06
2023-09-03T10:08:53.059Z,102884.06
2023-09-03T10:11:20.967Z,102912.19
2023-09-03T10:13:51.017Z,102850.47
2023-09-03T10:16:21.321Z,102885.69
2023-09-03T10:18:50.368Z,102912.56
2023-09-03T10:21:50.937Z,102898.41
2023-09-03T10:24:17.909Z,102880.28
2023-09-03T10:26:49.595Z,102909.94
2023-09-03T10:29:20.677Z,102861.00
2023-09-03T10:31:49.734Z,102902.00
2023-09-03T10:34:16.927Z,102905.44
2023-09-03T10:37:03.193Z,102912.25
2023-09-03T10:39:30.131Z,102903.81
2023-09-03T10:42:15.750Z,102917.38
2023-09-03T10:44:43.658Z,102916.75
2023-09-03T10:47:12.811Z,102886.09
2023-09-03T10:49:44.394Z,102925.66
2023-09-03T10:52:29.808Z,102930.72
2023-09-03T10:55:19.495Z,102926.84
2023-09-03T10:58:11.457Z,102930.41
2023-09-03T11:00:38.619Z,102919.06
2023-09-03T11:03:19.750Z,102928.72
2023-09-03T11:06:24.885Z,102918.53
2023-09-03T11:09:11.824Z,102919.72
2023-09-03T11:11:41.761Z,102912.13
2023-09-03T11:14:08.979Z,102924.34
2023-09-03T11:16:38.022Z,102902.03
2023-09-03T11:19:08.640Z,102915.97
2023-09-03T11:21:37.437Z,102910.00
2023-09-03T11:24:05.229Z,102927.66
2023-09-03T11:26:36.124Z,102921.75
2023-09-03T11:29:03.792Z,102924.16
2023-09-03T11:31:31.266Z,102922.88
2023-09-03T11:33:58.185Z,102898.78
2023-09-03T11:36:27.965Z,102906.91
2023-09-03T11:38:56.654Z,102909.34
2023-09-03T11:41:23.730Z,102902.25
2023-09-03T11:43:50.604Z,102876.84
2023-09-03T11:46:19.248Z,102906.84
2023-09-03T11:48:52.111Z,102868.03
2023-09-03T11:51:29.874Z,102891.59
2023-09-03T11:53:57.717Z,102914.63
2023-09-03T11:56:27.198Z,102905.28
2023-09-03T11:59:06.131Z,102904.56
2023-09-03T12:01:33.357Z,102880.53
2023-09-03T12:04:00.182Z,102890.69
2023-09-03T12:06:27.950Z,102891.34
2023-09-03T12:08:54.615Z,102872.38
2023-09-03T12:11:29.625Z,102912.19
2023-09-03T12:13:56.365Z,102895.59
2023-09-03T12:16:25.258Z,102889.81
2023-09-03T12:18:59.753Z,102842.59
2023-09-03T12:21:37.128Z,102886.97
2023-09-03T12:24:06.326Z,102898.22
2023-09-03T12:26:36.227Z,102910.06
2023-09-03T12:29:20.371Z,102909.41
2023-09-03T12:31:47.041Z,102896.19
2023-09-03T12:34:15.352Z,102895.53
2023-09-03T12:37:02.860Z,102897.06
2023-09-03T12:39:43.184Z,102874.91
2023-09-03T12:42:11.451Z,102896.53
2023-09-03T12:44:42.394Z,102883.38
2023-09-03T12:47:10.411Z,102877.97
2023-09-03T12:49:37.132Z,102886.75
2023-09-03T12:52:04.007Z,102880.34
2023-09-03T12:54:32.797Z,102878.00
2023-09-03T12:57:01.761Z,102885.25
2023-09-03T12:59:28.640Z,102887.13
2023-09-03T13:01:55.484Z,102884.09
2023-09-03T13:04:22.408Z,102890.50
2023-09-03T13:06:49.189Z,102887.13
2023-09-03T13:09:15.850Z,102865.84
2023-09-03T13:11:42.742Z,102882.41
2023-09-03T13:14:09.464Z,102863.44
2023-09-03T13:16:37.347Z,102883.78
2023-09-03T13:19:04.265Z,102832.31
2023-09-03T13:21:36.886Z,102850.59
2023-09-03T13:24:04.518Z,102863.78
2023-09-03T13:26:31.404Z,102864.44
2023-09-03T13:28:58.333Z,102853.28
2023-09-03T13:31:27.167Z,102867.16
2023-09-03T13:33:54.288Z,102870.91
2023-09-03T13:36:21.846Z,102853.63
2023-09-03T13:38:50.948Z,102853.63
2023-09-03T13:41:17.773Z,102832.81
2023-09-03T13:43:58.942Z,102846.03
2023-09-03T13:46:27.217Z,102856.84
2023-09-03T13:48:54.200Z,102842.13
2023-09-03T13:51:22.459Z,102821.50
2023-09-03T13:53:53.222Z,102838.75
2023-09-03T13:56:20.018Z,102859.72
2023-09-03T13:58:46.674Z,102871.03
2023-09-03T14:01:13.453Z,102871.22
2023-09-03T14:03:40.143Z,102862.91
2023-09-03T14:06:08.369Z,102877.63
2023-09-03T14:08:35.493Z,102877.63
2023-09-03T14:11:02.249Z,102872.19
2023-09-03T14:13:29.204Z,102873.41
2023-09-03T14:15:57.262Z,102873.06
2023-09-03T14:18:25.530Z,102872.91
2023-09-03T14:20:57.072Z,102853.81
2023-09-03T14:23:25.404Z,102869.19
2023-09-03T14:25:53.477Z,102874.78
2023-09-03T14:28:21.380Z,102873.59
2023-09-03T14:30:50.386Z,102863.63
2023-09-03T14:33:18.918Z,102869.19
2023-09-03T14:35:48.481Z,102867.16
2023-09-03T14:38:16.630Z,102872.56
2023-09-03T14:40:50.586Z,102856.34
2023-09-03T14:43:17.416Z,102869.19
2023-09-03T14:45:44.092Z,102877.81
2023-09-03T14:48:10.860Z,102801.91
2023-09-03T14:50:37.729Z,102857.84
2023-09-03T14:53:04.564Z,102860.22
2023-09-03T14:55:31.192Z,102846.53
2023-09-03T14:57:57.958Z,102851.94
2023-09-03T15:00:24.594Z,102863.63
2023-09-03T15:02:51.474Z,102819.78
2023-09-03T15:05:18.425Z,102845.53
2023-09-03T15:07:45.429Z,102849.72
2023-09-03T15:10:12.562Z,102843.16
2023-09-03T15:12:39.349Z,102850.41
2023-09-03T15:15:06.377Z,102858.69
2023-09-03T15:17:33.092Z,102849.91
2023-09-03T15:20:00.920Z,102860.03
2023-09-03T15:22:27.652Z,102858.88
2023-09-03T15:24:54.378Z,102851.41
2023-09-03T15:27:21.520Z,102848.19
2023-09-03T15:29:49.656Z,102856.66
2023-09-03T15:32:17.504Z,102847.53
2023-09-03T15:34:45.827Z,102857.66
2023-09-03T15:37:14.535Z,102790.16
2023-09-03T15:39:42.396Z,102835.69
2023-09-03T15:42:11.739Z,102832.66
2023-09-03T15:44:40.433Z,102846.19
2023-09-03T15:47:08.342Z,102806.47
2023-09-03T15:49:37.095Z,102828.09
2023-09-03T15:52:09.400Z,102844.31
2023-09-03T15:54:39.235Z,102854.28
2023-09-03T15:57:07.087Z,102855.50
2023-09-03T15:59:35.189Z,102842.28
2023-09-03T16:02:03.263Z,102864.78
2023-09-03T16:04:31.768Z,102880.84
2023-09-03T16:07:00.026Z,102874.91
2023-09-03T16:09:27.646Z,102871.56
2023-09-03T16:11:54.325Z,102878.66
2023-09-03T16:14:21.023Z,102878.13
2023-09-03T16:16:47.910Z,102854.63
2023-09-03T16:19:14.555Z,102877.81
2023-09-03T16:21:41.491Z,102867.47
2023-09-03T16:24:08.483Z,102850.88
2023-09-03T16:26:35.209Z,102881.00
2023-09-03T16:29:01.884Z,102851.56
2023-09-03T16:31:28.751Z,102881.97
2023-09-03T16:33:55.412Z,102880.31
2023-09-03T16:36:22.040Z,102868.41
2023-09-03T16:38:48.915Z,102879.59
2023-09-03T16:41:15.703Z,102890.25
2023-09-03T16:43:43.896Z,102893.13
2023-09-03T16:46:11.739Z,102864.00
2023-09-03T16:48:38.405Z,102876.16
2023-09-03T16:51:05.136Z,102886.63
2023-09-03T16:53:31.974Z,102889.31
2023-09-03T16:56:01.937Z,102895.03
2023-09-03T16:58:28.550Z,102890.63
2023-09-03T17:00:56.946Z,102889.41
2023-09-03T17:03:26.182Z,102901.75
2023-09-03T17:05:53.197Z,102899.03
2023-09-03T17:08:20.342Z,102860.41
2023-09-03T17:10:47.395Z,102892.88
2023-09-03T17:13:14.204Z,102877.13
2023-09-03T17:15:41.742Z,102849.28
2023-09-03T17:18:09.489Z,102882.97
2023-09-03T17:20:42.041Z,102858.50
2023-09-03T17:23:09.504Z,102866.59
2023-09-03T17:25:36.919Z,102854.38
2023-09-03T17:28:03.896Z,102866.53
2023-09-03T17:30:30.802Z,102866.31
2023-09-03T17:32:57.680Z,102866.94
2023-09-03T17:35:24.406Z,102870.09
2023-09-03T17:37:51.172Z,102843.31
2023-09-03T17:40:20.785Z,102832.47
2023-09-03T17:42:47.869Z,102844.56
2023-09-03T17:45:15.220Z,102855.75
2023-09-03T17:47:43.962Z,102869.22
2023-09-03T17:50:10.909Z,102854.25
2023-09-03T17:52:37.770Z,102870.44
2023-09-03T17:55:04.891Z,102860.56
2023-09-03T17:57:34.570Z,102878.47
2023-09-03T18:00:01.957Z,102848.53
2023-09-03T18:02:28.866Z,102855.31
2023-09-03T18:04:56.416Z,102853.94
2023-09-03T18:07:23.218Z,102866.41
2023-09-03T18:09:49.897Z,102858.63
2023-09-03T18:12:16.734Z,102867.31
2023-09-03T18:14:43.567Z,102854.91
2023-09-03T18:17:11.301Z,102845.88
2023-09-03T18:19:38.041Z,102838.28
2023-09-03T18:22:05.226Z,102763.97
2023-09-03T18:24:33.604Z,102849.63
2023-09-03T18:27:00.311Z,102861.41
2023-09-03T18:29:27.246Z,102852.56
2023-09-03T18:31:54.031Z,102844.66
2023-09-03T18:34:20.777Z,102850.03
2023-09-03T18:36:48.203Z,102841.44
2023-09-03T18:39:14.992Z,102848.09
2023-09-03T18:41:41.712Z,102859.19
2023-09-03T18:44:08.922Z,102862.16
2023-09-03T18:46:35.761Z,102822.44
2023-09-03T18:49:02.516Z,102851.31
2023-09-03T18:51:29.849Z,102825.16
2023-09-03T18:53:57.292Z,102851.31
2023-09-03T18:56:24.117Z,102826.81
2023-09-03T18:58:50.734Z,102833.91
2023-09-03T19:01:20.579Z,102862.66
2023-09-03T19:03:50.514Z,102846.22
2023-09-03T19:06:18.818Z,102875.69
2023-09-03T19:08:45.756Z,102867.44
2023-09-03T19:11:12.694Z,102847.66
2023-09-03T19:13:40.239Z,102885.59
2023-09-03T19:16:07.006Z,102882.44
2023-09-03T19:18:35.270Z,102885.44
2023-09-03T19:21:02.394Z,102833.66
2023-09-03T19:23:29.058Z,102868.44
2023-09-03T19:25:55.832Z,102863.38
2023-09-03T19:28:22.993Z,102868.16
2023-09-03T19:30:52.006Z,102863.50
2023-09-03T19:33:20.828Z,102870.84
2023-09-03T19:35:57.527Z,102791.06
2023-09-03T19:38:32.724Z,102849.34
2023-09-03T19:41:01.695Z,102826.13
2023-09-03T19:43:28.662Z,102850.72
2023-09-03T19:45:57.476Z,102866.28
2023-09-03T19:48:26.563Z,102863.06
2023-09-03T19:50:56.726Z,102851.00
2023-09-03T19:53:23.730Z,102855.53
2023-09-03T19:55:50.767Z,102875.72
2023-09-03T19:58:18.059Z,102866.75
2023-09-03T20:00:45.538Z,102868.47
2023-09-03T20:03:13.451Z,102866.19
2023-09-03T20:05:42.032Z,102831.63
2023-09-03T20:08:09.564Z,102860.47
2023-09-03T20:10:40.186Z,102848.00
2023-09-03T20:13:09.007Z,102842.59
2023-09-03T20:15:38.871Z,102865.53
2023-09-03T20:18:06.365Z,102848.81
2023-09-03T20:20:36.550Z,102858.13
2023-09-03T20:23:03.529Z,102872.38
2023-09-03T20:25:30.422Z,102859.19
2023-09-03T20:27:57.125Z,102850.72
2023-09-03T20:30:23.827Z,102863.59
2023-09-03T20:32:50.840Z,102854.63
2023-09-03T20:35:20.109Z,102848.09
2023-09-03T20:37:47.077Z,102863.66
2023-09-03T20:40:13.893Z,102843.81
2023-09-03T20:42:40.786Z,102876.88
2023-09-03T20:45:08.044Z,102864.13
2023-09-03T20:47:34.985Z,102861.97
2023-09-03T20:50:02.277Z,102836.56
2023-09-03T20:52:29.403Z,102855.53
2023-09-03T20:54:56.192Z,102857.75
2023-09-03T20:57:22.986Z,102870.31
2023-09-03T20:59:49.667Z,102852.00
2023-09-03T21:02:16.421Z,102850.78
2023-09-03T21:04:43.458Z,102842.97
2023-09-03T21:07:10.182Z,102841.78
2023-09-03T21:09:37.824Z,102836.22
